sensor_id;sensor_type;location;lat;lon;timestamp;temperature;humidity
36752;DHT22;22718;49.494;7.036;2023-12-07T00:01:45;1.70;99.90
36752;DHT22;22718;49.494;7.036;2023-12-07T00:04:14;1.80;99.90
36752;DHT22;22718;49.494;7.036;2023-12-07T00:06:42;1.80;99.90
36752;DHT22;22718;49.494;7.036;2023-12-07T00:09:07;1.90;99.90
36752;DHT22;22718;49.494;7.036;2023-12-07T00:11:33;1.90;99.90
36752;DHT22;22718;49.494;7.036;2023-12-07T00:14:01;2.00;99.90
36752;DHT22;22718;49.494;7.036;2023-12-07T00:16:30;2.00;99.90
36752;DHT22;22718;49.494;7.036;2023-12-07T00:18:57;2.10;99.90
36752;DHT22;22718;49.494;7.036;2023-12-07T00:21:22;2.00;99.90
36752;DHT22;22718;49.494;7.036;2023-12-07T00:23:48;2.10;99.90
36752;DHT22;22718;49.494;7.036;2023-12-07T00:26:14;2.10;99.90
36752;DHT22;22718;49.494;7.036;2023-12-07T00:28:48;2.10;99.90
36752;DHT22;22718;49.494;7.036;2023-12-07T00:31:13;2.10;99.90
36752;DHT22;22718;49.494;7.036;2023-12-07T00:33:39;2.00;99.90
36752;DHT22;22718;49.494;7.036;2023-12-07T00:36:05;2.00;99.90
36752;DHT22;22718;49.494;7.036;2023-12-07T00:38:33;2.00;99.90
36752;DHT22;22718;49.494;7.036;2023-12-07T00:40:59;1.90;99.90
36752;DHT22;22718;49.494;7.036;2023-12-07T00:43:24;1.80;99.90
36752;DHT22;22718;49.494;7.036;2023-12-07T00:45:51;1.80;99.90
36752;DHT22;22718;49.494;7.036;2023-12-07T00:48:17;1.80;99.90
36752;DHT22;22718;49.494;7.036;2023-12-07T00:50:42;1.70;99.90
36752;DHT22;22718;49.494;7.036;2023-12-07T00:53:17;1.70;99.90
36752;DHT22;22718;49.494;7.036;2023-12-07T00:55:43;1.70;99.90
36752;DHT22;22718;49.494;7.036;2023-12-07T00:58:09;1.70;99.90
36752;DHT22;22718;49.494;7.036;2023-12-07T01:00:35;1.60;99.90
36752;DHT22;22718;49.494;7.036;2023-12-07T01:03:00;1.60;99.90
36752;DHT22;22718;49.494;7.036;2023-12-07T01:05:28;1.60;99.90
36752;DHT22;22718;49.494;7.036;2023-12-07T01:07:54;1.50;99.90
36752;DHT22;22718;49.494;7.036;2023-12-07T01:10:22;1.50;99.90
36752;DHT22;22718;49.494;7.036;2023-12-07T01:12:48;1.50;99.90
36752;DHT22;22718;49.494;7.036;2023-12-07T01:15:17;1.50;99.90
36752;DHT22;22718;49.494;7.036;2023-12-07T01:17:42;1.50;99.90
36752;DHT22;22718;49.494;7.036;2023-12-07T01:20:08;1.50;99.90
36752;DHT22;22718;49.494;7.036;2023-12-07T01:22:41;1.50;99.90
36752;DHT22;22718;49.494;7.036;2023-12-07T01:25:07;1.50;99.90
36752;DHT22;22718;49.494;7.036;2023-12-07T01:27:34;1.50;99.90
36752;DHT22;22718;49.494;7.036;2023-12-07T01:30:06;1.50;99.90
36752;DHT22;22718;49.494;7.036;2023-12-07T01:32:31;1.60;99.90
36752;DHT22;22718;49.494;7.036;2023-12-07T01:35:00;1.50;99.90
36752;DHT22;22718;49.494;7.036;2023-12-07T01:37:25;1.60;99.90
36752;DHT22;22718;49.494;7.036;2023-12-07T01:39:56;1.70;99.90
36752;DHT22;22718;49.494;7.036;2023-12-07T01:42:34;1.70;99.90
36752;DHT22;22718;49.494;7.036;2023-12-07T01:45:02;1.70;99.90
36752;DHT22;22718;49.494;7.036;2023-12-07T01:47:37;1.70;99.90
36752;DHT22;22718;49.494;7.036;2023-12-07T01:50:04;1.70;99.90
36752;DHT22;22718;49.494;7.036;2023-12-07T01:52:31;1.80;99.90
36752;DHT22;22718;49.494;7.036;2023-12-07T01:54:57;1.80;99.90
36752;DHT22;22718;49.494;7.036;2023-12-07T01:57:26;1.90;99.90
36752;DHT22;22718;49.494;7.036;2023-12-07T01:59:55;1.90;99.90
36752;DHT22;22718;49.494;7.036;2023-12-07T02:02:22;1.90;99.90
36752;DHT22;22718;49.494;7.036;2023-12-07T02:04:50;1.80;99.90
36752;DHT22;22718;49.494;7.036;2023-12-07T02:07:19;1.90;99.90
36752;DHT22;22718;49.494;7.036;2023-12-07T02:09:47;1.80;99.90
36752;DHT22;22718;49.494;7.036;2023-12-07T02:12:18;1.90;99.90
36752;DHT22;22718;49.494;7.036;2023-12-07T02:14:45;1.90;99.90
36752;DHT22;22718;49.494;7.036;2023-12-07T02:22:55;2.00;99.90
36752;DHT22;22718;49.494;7.036;2023-12-07T02:25:35;2.00;99.90
36752;DHT22;22718;49.494;7.036;2023-12-07T02:28:02;2.00;99.90
36752;DHT22;22718;49.494;7.036;2023-12-07T02:30:28;2.00;99.90
36752;DHT22;22718;49.494;7.036;2023-12-07T02:32:57;2.00;99.90
36752;DHT22;22718;49.494;7.036;2023-12-07T02:35:23;2.00;99.90
36752;DHT22;22718;49.494;7.036;2023-12-07T02:37:50;2.00;99.90
36752;DHT22;22718;49.494;7.036;2023-12-07T02:40:20;1.90;99.90
36752;DHT22;22718;49.494;7.036;2023-12-07T02:42:49;1.90;99.90
36752;DHT22;22718;49.494;7.036;2023-12-07T02:45:15;2.00;99.90
36752;DHT22;22718;49.494;7.036;2023-12-07T02:47:53;2.00;99.90
36752;DHT22;22718;49.494;7.036;2023-12-07T02:50:37;2.00;99.90
36752;DHT22;22718;49.494;7.036;2023-12-07T02:53:03;2.10;99.90
36752;DHT22;22718;49.494;7.036;2023-12-07T02:55:39;2.00;99.90
36752;DHT22;22718;49.494;7.036;2023-12-07T02:58:08;1.90;99.90
36752;DHT22;22718;49.494;7.036;2023-12-07T03:00:34;2.00;99.90
36752;DHT22;22718;49.494;7.036;2023-12-07T03:03:00;1.90;99.90
36752;DHT22;22718;49.494;7.036;2023-12-07T03:05:28;2.00;99.90
36752;DHT22;22718;49.494;7.036;2023-12-07T03:07:53;1.90;99.90
36752;DHT22;22718;49.494;7.036;2023-12-07T03:10:19;1.80;99.90
36752;DHT22;22718;49.494;7.036;2023-12-07T03:12:45;1.80;99.90
36752;DHT22;22718;49.494;7.036;2023-12-07T03:15:11;1.90;99.90
36752;DHT22;22718;49.494;7.036;2023-12-07T03:17:39;1.90;99.90
36752;DHT22;22718;49.494;7.036;2023-12-07T03:20:05;1.90;99.90
36752;DHT22;22718;49.494;7.036;2023-12-07T03:22:33;1.90;99.90
36752;DHT22;22718;49.494;7.036;2023-12-07T03:25:02;1.90;99.90
36752;DHT22;22718;49.494;7.036;2023-12-07T03:27:34;2.00;99.90
36752;DHT22;22718;49.494;7.036;2023-12-07T03:30:00;2.00;99.90
36752;DHT22;22718;49.494;7.036;2023-12-07T03:32:36;2.00;99.90
36752;DHT22;22718;49.494;7.036;2023-12-07T03:35:07;2.00;99.90
36752;DHT22;22718;49.494;7.036;2023-12-07T03:37:32;1.90;99.90
36752;DHT22;22718;49.494;7.036;2023-12-07T03:40:03;1.80;99.90
36752;DHT22;22718;49.494;7.036;2023-12-07T03:42:34;1.80;99.90
36752;DHT22;22718;49.494;7.036;2023-12-07T03:45:02;1.80;99.90
36752;DHT22;22718;49.494;7.036;2023-12-07T03:47:31;1.90;99.90
36752;DHT22;22718;49.494;7.036;2023-12-07T03:49:56;1.90;99.90
36752;DHT22;22718;49.494;7.036;2023-12-07T03:52:22;1.90;99.90
36752;DHT22;22718;49.494;7.036;2023-12-07T03:54:53;1.90;99.90
36752;DHT22;22718;49.494;7.036;2023-12-07T03:57:19;1.90;99.90
36752;DHT22;22718;49.494;7.036;2023-12-07T03:59:47;1.80;99.90
36752;DHT22;22718;49.494;7.036;2023-12-07T04:02:15;1.70;99.90
36752;DHT22;22718;49.494;7.036;2023-12-07T04:04:43;1.60;99.90
36752;DHT22;22718;49.494;7.036;2023-12-07T04:07:09;1.60;99.90
36752;DHT22;22718;49.494;7.036;2023-12-07T04:09:37;1.60;99.90
36752;DHT22;22718;49.494;7.036;2023-12-07T04:12:06;1.70;99.90
36752;DHT22;22718;49.494;7.036;2023-12-07T04:14:31;1.60;99.90
36752;DHT22;22718;49.494;7.036;2023-12-07T04:16:57;1.70;99.90
36752;DHT22;22718;49.494;7.036;2023-12-07T04:19:25;1.70;99.90
36752;DHT22;22718;49.494;7.036;2023-12-07T04:21:53;1.60;99.90
36752;DHT22;22718;49.494;7.036;2023-12-07T04:24:19;1.60;99.90
36752;DHT22;22718;49.494;7.036;2023-12-07T04:26:47;1.70;99.90
36752;DHT22;22718;49.494;7.036;2023-12-07T04:29:17;1.70;99.90
36752;DHT22;22718;49.494;7.036;2023-12-07T04:31:45;1.70;99.90
36752;DHT22;22718;49.494;7.036;2023-12-07T04:34:14;1.60;99.90
36752;DHT22;22718;49.494;7.036;2023-12-07T04:36:42;1.60;99.90
36752;DHT22;22718;49.494;7.036;2023-12-07T04:39:08;1.60;99.90
36752;DHT22;22718;49.494;7.036;2023-12-07T04:41:35;1.60;99.90
36752;DHT22;22718;49.494;7.036;2023-12-07T04:44:00;1.40;99.90
36752;DHT22;22718;49.494;7.036;2023-12-07T04:46:29;1.30;99.90
36752;DHT22;22718;49.494;7.036;2023-12-07T04:49:05;1.30;99.90
36752;DHT22;22718;49.494;7.036;2023-12-07T04:51:34;1.40;99.90
36752;DHT22;22718;49.494;7.036;2023-12-07T04:54:02;1.40;99.90
36752;DHT22;22718;49.494;7.036;2023-12-07T04:56:28;1.40;99.90
36752;DHT22;22718;49.494;7.036;2023-12-07T05:01:39;1.40;99.90
36752;DHT22;22718;49.494;7.036;2023-12-07T05:04:05;1.50;99.90
36752;DHT22;22718;49.494;7.036;2023-12-07T05:06:31;1.40;99.90
36752;DHT22;22718;49.494;7.036;2023-12-07T05:09:04;1.50;99.90
36752;DHT22;22718;49.494;7.036;2023-12-07T05:11:34;1.50;99.90
36752;DHT22;22718;49.494;7.036;2023-12-07T05:14:02;1.60;99.90
36752;DHT22;22718;49.494;7.036;2023-12-07T05:16:30;1.50;99.90
36752;DHT22;22718;49.494;7.036;2023-12-07T05:18:56;1.50;99.90
36752;DHT22;22718;49.494;7.036;2023-12-07T05:21:24;1.40;99.90
36752;DHT22;22718;49.494;7.036;2023-12-07T05:23:54;1.40;99.90
36752;DHT22;22718;49.494;7.036;2023-12-07T05:26:22;1.40;99.90
36752;DHT22;22718;49.494;7.036;2023-12-07T05:28:48;1.40;99.90
36752;DHT22;22718;49.494;7.036;2023-12-07T05:31:20;1.40;99.90
36752;DHT22;22718;49.494;7.036;2023-12-07T05:33:48;1.40;99.90
36752;DHT22;22718;49.494;7.036;2023-12-07T05:36:14;1.40;99.90
36752;DHT22;22718;49.494;7.036;2023-12-07T05:38:41;1.50;99.90
36752;DHT22;22718;49.494;7.036;2023-12-07T05:41:07;1.50;99.90
36752;DHT22;22718;49.494;7.036;2023-12-07T05:43:35;1.40;99.90
36752;DHT22;22718;49.494;7.036;2023-12-07T05:46:01;1.40;99.90
36752;DHT22;22718;49.494;7.036;2023-12-07T05:48:33;1.30;99.90
36752;DHT22;22718;49.494;7.036;2023-12-07T05:51:04;1.20;99.90
36752;DHT22;22718;49.494;7.036;2023-12-07T05:53:30;1.20;99.90
36752;DHT22;22718;49.494;7.036;2023-12-07T05:56:01;1.20;99.90
36752;DHT22;22718;49.494;7.036;2023-12-07T05:58:27;1.30;99.90
36752;DHT22;22718;49.494;7.036;2023-12-07T06:00:59;1.20;99.90
36752;DHT22;22718;49.494;7.036;2023-12-07T06:03:31;1.30;99.90
36752;DHT22;22718;49.494;7.036;2023-12-07T06:06:00;1.30;99.90
36752;DHT22;22718;49.494;7.036;2023-12-07T06:08:26;1.30;99.90
36752;DHT22;22718;49.494;7.036;2023-12-07T06:10:55;1.30;99.90
36752;DHT22;22718;49.494;7.036;2023-12-07T06:13:21;1.20;99.90
36752;DHT22;22718;49.494;7.036;2023-12-07T06:15:47;1.10;99.90
36752;DHT22;22718;49.494;7.036;2023-12-07T06:18:12;1.00;99.90
36752;DHT22;22718;49.494;7.036;2023-12-07T06:20:38;1.00;99.90
36752;DHT22;22718;49.494;7.036;2023-12-07T06:23:06;1.00;99.90
36752;DHT22;22718;49.494;7.036;2023-12-07T06:25:34;1.00;99.90
36752;DHT22;22718;49.494;7.036;2023-12-07T06:28:00;0.90;99.90
36752;DHT22;22718;49.494;7.036;2023-12-07T06:30:28;0.90;99.90
36752;DHT22;22718;49.494;7.036;2023-12-07T06:32:54;0.90;99.90
36752;DHT22;22718;49.494;7.036;2023-12-07T06:35:20;0.90;99.90
36752;DHT22;22718;49.494;7.036;2023-12-07T06:37:46;0.90;99.90
36752;DHT22;22718;49.494;7.036;2023-12-07T06:40:12;1.00;99.90
36752;DHT22;22718;49.494;7.036;2023-12-07T06:42:38;1.10;99.90
36752;DHT22;22718;49.494;7.036;2023-12-07T06:45:05;1.10;99.90
36752;DHT22;22718;49.494;7.036;2023-12-07T06:47:36;1.10;99.90
36752;DHT22;22718;49.494;7.036;2023-12-07T06:50:05;1.20;99.90
36752;DHT22;22718;49.494;7.036;2023-12-07T06:52:34;1.20;99.90
36752;DHT22;22718;49.494;7.036;2023-12-07T06:55:00;1.20;99.90
36752;DHT22;22718;49.494;7.036;2023-12-07T06:57:28;1.20;99.90
36752;DHT22;22718;49.494;7.036;2023-12-07T06:59:57;1.20;99.90
36752;DHT22;22718;49.494;7.036;2023-12-07T07:02:25;1.20;99.90
36752;DHT22;22718;49.494;7.036;2023-12-07T07:04:54;1.10;99.90
36752;DHT22;22718;49.494;7.036;2023-12-07T07:07:26;1.10;99.90
36752;DHT22;22718;49.494;7.036;2023-12-07T07:09:57;1.10;99.90
36752;DHT22;22718;49.494;7.036;2023-12-07T07:12:24;1.20;99.90
36752;DHT22;22718;49.494;7.036;2023-12-07T07:14:53;1.20;99.90
36752;DHT22;22718;49.494;7.036;2023-12-07T07:17:29;1.20;99.90
36752;DHT22;22718;49.494;7.036;2023-12-07T07:19:58;1.20;99.90
36752;DHT22;22718;49.494;7.036;2023-12-07T07:22:35;1.20;99.90
36752;DHT22;22718;49.494;7.036;2023-12-07T07:25:00;1.30;99.90
36752;DHT22;22718;49.494;7.036;2023-12-07T07:27:29;1.30;99.90
36752;DHT22;22718;49.494;7.036;2023-12-07T07:29:55;1.30;99.90
36752;DHT22;22718;49.494;7.036;2023-12-07T07:32:27;1.20;99.90
36752;DHT22;22718;49.494;7.036;2023-12-07T07:34:56;1.20;99.90
36752;DHT22;22718;49.494;7.036;2023-12-07T07:37:23;1.10;99.90
36752;DHT22;22718;49.494;7.036;2023-12-07T07:39:50;1.10;99.90
36752;DHT22;22718;49.494;7.036;2023-12-07T07:42:16;1.10;99.90
36752;DHT22;22718;49.494;7.036;2023-12-07T07:44:44;1.20;99.90
36752;DHT22;22718;49.494;7.036;2023-12-07T07:47:23;1.10;99.90
36752;DHT22;22718;49.494;7.036;2023-12-07T07:49:55;1.20;99.90
36752;DHT22;22718;49.494;7.036;2023-12-07T07:52:24;1.20;99.90
36752;DHT22;22718;49.494;7.036;2023-12-07T07:54:54;1.20;99.90
36752;DHT22;22718;49.494;7.036;2023-12-07T07:57:26;1.20;99.90
36752;DHT22;22718;49.494;7.036;2023-12-07T07:59:54;1.20;99.90
36752;DHT22;22718;49.494;7.036;2023-12-07T08:02:25;1.20;99.90
36752;DHT22;22718;49.494;7.036;2023-12-07T08:04:51;1.20;99.90
36752;DHT22;22718;49.494;7.036;2023-12-07T08:07:23;1.30;99.90
36752;DHT22;22718;49.494;7.036;2023-12-07T08:09:51;1.30;99.90
36752;DHT22;22718;49.494;7.036;2023-12-07T08:12:20;1.30;99.90
36752;DHT22;22718;49.494;7.036;2023-12-07T08:14:53;1.40;99.90
36752;DHT22;22718;49.494;7.036;2023-12-07T08:17:26;1.40;99.90
36752;DHT22;22718;49.494;7.036;2023-12-07T08:19:55;1.40;99.90
36752;DHT22;22718;49.494;7.036;2023-12-07T08:22:24;1.50;99.90
36752;DHT22;22718;49.494;7.036;2023-12-07T08:25:10;1.50;99.90
36752;DHT22;22718;49.494;7.036;2023-12-07T08:27:43;1.50;99.90
36752;DHT22;22718;49.494;7.036;2023-12-07T08:30:11;1.50;99.90
36752;DHT22;22718;49.494;7.036;2023-12-07T08:32:41;1.50;99.90
36752;DHT22;22718;49.494;7.036;2023-12-07T08:35:07;1.50;99.90
36752;DHT22;22718;49.494;7.036;2023-12-07T08:37:33;1.60;99.90
36752;DHT22;22718;49.494;7.036;2023-12-07T08:40:00;1.60;99.90
36752;DHT22;22718;49.494;7.036;2023-12-07T08:42:29;1.80;99.90
36752;DHT22;22718;49.494;7.036;2023-12-07T08:44:59;1.90;99.90
36752;DHT22;22718;49.494;7.036;2023-12-07T08:50:01;2.00;99.90
36752;DHT22;22718;49.494;7.036;2023-12-07T08:52:29;2.00;99.90
36752;DHT22;22718;49.494;7.036;2023-12-07T08:54:54;2.10;99.90
36752;DHT22;22718;49.494;7.036;2023-12-07T08:57:20;2.10;99.90
36752;DHT22;22718;49.494;7.036;2023-12-07T08:59:50;2.20;99.90
36752;DHT22;22718;49.494;7.036;2023-12-07T09:02:17;2.20;99.90
36752;DHT22;22718;49.494;7.036;2023-12-07T09:05:01;2.30;99.90
36752;DHT22;22718;49.494;7.036;2023-12-07T09:07:31;2.40;99.90
36752;DHT22;22718;49.494;7.036;2023-12-07T09:10:00;2.40;99.90
36752;DHT22;22718;49.494;7.036;2023-12-07T09:12:29;2.40;99.90
36752;DHT22;22718;49.494;7.036;2023-12-07T09:15:11;2.30;99.90
36752;DHT22;22718;49.494;7.036;2023-12-07T09:17:40;2.30;99.90
36752;DHT22;22718;49.494;7.036;2023-12-07T09:20:10;2.20;99.90
36752;DHT22;22718;49.494;7.036;2023-12-07T09:22:40;2.30;99.90
36752;DHT22;22718;49.494;7.036;2023-12-07T09:25:08;2.30;99.90
36752;DHT22;22718;49.494;7.036;2023-12-07T09:27:34;2.40;99.90
36752;DHT22;22718;49.494;7.036;2023-12-07T09:30:06;2.40;99.90
36752;DHT22;22718;49.494;7.036;2023-12-07T09:32:42;2.40;99.90
36752;DHT22;22718;49.494;7.036;2023-12-07T09:35:09;2.30;99.90
36752;DHT22;22718;49.494;7.036;2023-12-07T09:37:47;2.30;99.90
36752;DHT22;22718;49.494;7.036;2023-12-07T09:40:18;2.40;99.90
36752;DHT22;22718;49.494;7.036;2023-12-07T09:42:48;2.50;99.90
36752;DHT22;22718;49.494;7.036;2023-12-07T09:45:14;2.60;99.90
36752;DHT22;22718;49.494;7.036;2023-12-07T09:47:58;2.60;99.90
36752;DHT22;22718;49.494;7.036;2023-12-07T09:50:28;2.50;99.90
36752;DHT22;22718;49.494;7.036;2023-12-07T09:52:59;2.60;99.90
36752;DHT22;22718;49.494;7.036;2023-12-07T09:55:28;2.50;99.90
36752;DHT22;22718;49.494;7.036;2023-12-07T09:57:53;2.40;99.90
36752;DHT22;22718;49.494;7.036;2023-12-07T10:00:27;2.40;99.90
36752;DHT22;22718;49.494;7.036;2023-12-07T10:03:05;2.50;99.90
36752;DHT22;22718;49.494;7.036;2023-12-07T10:05:53;2.70;99.90
36752;DHT22;22718;49.494;7.036;2023-12-07T10:11:18;3.10;99.90
36752;DHT22;22718;49.494;7.036;2023-12-07T10:13:45;3.30;99.90
36752;DHT22;22718;49.494;7.036;2023-12-07T10:16:15;3.50;99.90
36752;DHT22;22718;49.494;7.036;2023-12-07T10:18:53;3.60;99.90
36752;DHT22;22718;49.494;7.036;2023-12-07T10:21:33;3.40;99.90
36752;DHT22;22718;49.494;7.036;2023-12-07T10:24:03;3.20;99.90
36752;DHT22;22718;49.494;7.036;2023-12-07T10:26:30;2.90;99.90
36752;DHT22;22718;49.494;7.036;2023-12-07T10:29:04;2.50;99.90
36752;DHT22;22718;49.494;7.036;2023-12-07T10:31:36;2.50;99.90
36752;DHT22;22718;49.494;7.036;2023-12-07T10:34:06;2.60;99.90
36752;DHT22;22718;49.494;7.036;2023-12-07T10:36:37;2.90;99.90
36752;DHT22;22718;49.494;7.036;2023-12-07T10:39:03;2.90;99.90
36752;DHT22;22718;49.494;7.036;2023-12-07T10:41:43;2.90;99.90
36752;DHT22;22718;49.494;7.036;2023-12-07T10:44:33;2.90;99.90
36752;DHT22;22718;49.494;7.036;2023-12-07T10:47:08;2.90;99.90
36752;DHT22;22718;49.494;7.036;2023-12-07T10:49:43;2.80;99.90
36752;DHT22;22718;49.494;7.036;2023-12-07T10:52:24;2.80;99.90
36752;DHT22;22718;49.494;7.036;2023-12-07T10:55:23;2.70;99.90
36752;DHT22;22718;49.494;7.036;2023-12-07T10:58:04;2.60;99.90
36752;DHT22;22718;49.494;7.036;2023-12-07T11:00:35;2.50;99.90
36752;DHT22;22718;49.494;7.036;2023-12-07T11:03:01;2.60;99.90
36752;DHT22;22718;49.494;7.036;2023-12-07T11:05:34;2.70;99.90
36752;DHT22;22718;49.494;7.036;2023-12-07T11:08:06;2.80;99.90
36752;DHT22;22718;49.494;7.036;2023-12-07T11:11:01;3.00;99.90
36752;DHT22;22718;49.494;7.036;2023-12-07T11:13:36;3.10;99.90
36752;DHT22;22718;49.494;7.036;2023-12-07T11:16:06;3.20;99.90
36752;DHT22;22718;49.494;7.036;2023-12-07T11:18:36;3.30;99.90
36752;DHT22;22718;49.494;7.036;2023-12-07T11:21:03;3.30;99.90
36752;DHT22;22718;49.494;7.036;2023-12-07T11:23:32;3.30;99.90
36752;DHT22;22718;49.494;7.036;2023-12-07T11:25:58;3.30;99.90
36752;DHT22;22718;49.494;7.036;2023-12-07T11:28:47;3.50;99.90
36752;DHT22;22718;49.494;7.036;2023-12-07T11:31:16;3.50;99.90
36752;DHT22;22718;49.494;7.036;2023-12-07T11:33:42;3.60;99.90
36752;DHT22;22718;49.494;7.036;2023-12-07T11:36:09;3.70;99.90
36752;DHT22;22718;49.494;7.036;2023-12-07T11:41:43;3.40;99.90
36752;DHT22;22718;49.494;7.036;2023-12-07T11:44:17;3.60;99.90
36752;DHT22;22718;49.494;7.036;2023-12-07T11:46:50;3.70;99.90
36752;DHT22;22718;49.494;7.036;2023-12-07T11:49:26;3.80;99.90
36752;DHT22;22718;49.494;7.036;2023-12-07T11:52:23;3.90;99.90
36752;DHT22;22718;49.494;7.036;2023-12-07T11:54:50;4.00;99.90
36752;DHT22;22718;49.494;7.036;2023-12-07T11:57:20;4.20;99.90
36752;DHT22;22718;49.494;7.036;2023-12-07T11:59:51;4.10;99.90
36752;DHT22;22718;49.494;7.036;2023-12-07T12:02:36;4.10;99.90
36752;DHT22;22718;49.494;7.036;2023-12-07T12:05:04;4.00;99.90
36752;DHT22;22718;49.494;7.036;2023-12-07T12:07:35;4.00;99.90
36752;DHT22;22718;49.494;7.036;2023-12-07T12:10:03;3.90;99.90
36752;DHT22;22718;49.494;7.036;2023-12-07T12:12:32;3.90;99.90
36752;DHT22;22718;49.494;7.036;2023-12-07T12:15:04;3.90;99.90
36752;DHT22;22718;49.494;7.036;2023-12-07T12:17:33;3.80;99.90
36752;DHT22;22718;49.494;7.036;2023-12-07T12:20:06;3.50;99.90
36752;DHT22;22718;49.494;7.036;2023-12-07T12:22:48;3.40;99.90
36752;DHT22;22718;49.494;7.036;2023-12-07T12:25:17;3.40;99.90
36752;DHT22;22718;49.494;7.036;2023-12-07T12:27:45;3.50;99.90
36752;DHT22;22718;49.494;7.036;2023-12-07T12:30:24;3.70;99.90
36752;DHT22;22718;49.494;7.036;2023-12-07T12:32:52;3.90;99.90
36752;DHT22;22718;49.494;7.036;2023-12-07T12:35:18;3.80;99.90
36752;DHT22;22718;49.494;7.036;2023-12-07T12:38:02;3.80;99.90
36752;DHT22;22718;49.494;7.036;2023-12-07T12:40:32;3.80;99.90
36752;DHT22;22718;49.494;7.036;2023-12-07T12:42:58;3.80;99.90
36752;DHT22;22718;49.494;7.036;2023-12-07T12:45:31;3.70;99.90
36752;DHT22;22718;49.494;7.036;2023-12-07T12:47:58;3.70;99.90
36752;DHT22;22718;49.494;7.036;2023-12-07T12:50:37;3.70;99.90
36752;DHT22;22718;49.494;7.036;2023-12-07T12:53:09;3.60;99.90
36752;DHT22;22718;49.494;7.036;2023-12-07T12:55:37;3.60;99.90
36752;DHT22;22718;49.494;7.036;2023-12-07T12:58:05;3.70;99.90
36752;DHT22;22718;49.494;7.036;2023-12-07T13:00:41;3.50;99.90
36752;DHT22;22718;49.494;7.036;2023-12-07T13:03:12;3.40;99.90
36752;DHT22;22718;49.494;7.036;2023-12-07T13:05:41;3.20;99.90
36752;DHT22;22718;49.494;7.036;2023-12-07T13:08:10;3.20;99.90
36752;DHT22;22718;49.494;7.036;2023-12-07T13:10:36;3.00;99.90
36752;DHT22;22718;49.494;7.036;2023-12-07T13:13:01;3.00;99.90
36752;DHT22;22718;49.494;7.036;2023-12-07T13:15:28;2.90;99.90
36752;DHT22;22718;49.494;7.036;2023-12-07T13:17:55;2.70;99.90
36752;DHT22;22718;49.494;7.036;2023-12-07T13:20:23;2.60;99.90
36752;DHT22;22718;49.494;7.036;2023-12-07T13:22:49;2.50;99.90
36752;DHT22;22718;49.494;7.036;2023-12-07T13:25:20;2.40;99.90
36752;DHT22;22718;49.494;7.036;2023-12-07T13:27:48;2.40;99.90
36752;DHT22;22718;49.494;7.036;2023-12-07T13:30:14;2.50;99.90
36752;DHT22;22718;49.494;7.036;2023-12-07T13:32:40;2.50;99.90
36752;DHT22;22718;49.494;7.036;2023-12-07T13:35:08;2.50;99.90
36752;DHT22;22718;49.494;7.036;2023-12-07T13:37:39;2.50;99.90
36752;DHT22;22718;49.494;7.036;2023-12-07T13:40:08;2.50;99.90
36752;DHT22;22718;49.494;7.036;2023-12-07T13:42:36;2.60;99.90
36752;DHT22;22718;49.494;7.036;2023-12-07T13:45:14;2.60;99.90
36752;DHT22;22718;49.494;7.036;2023-12-07T13:47:39;2.70;99.90
36752;DHT22;22718;49.494;7.036;2023-12-07T13:50:08;2.60;99.90
36752;DHT22;22718;49.494;7.036;2023-12-07T13:52:34;2.60;99.90
36752;DHT22;22718;49.494;7.036;2023-12-07T13:54:59;2.60;99.90
36752;DHT22;22718;49.494;7.036;2023-12-07T13:57:25;2.60;99.90
36752;DHT22;22718;49.494;7.036;2023-12-07T13:59:52;2.60;99.90
36752;DHT22;22718;49.494;7.036;2023-12-07T14:02:21;2.60;99.90
36752;DHT22;22718;49.494;7.036;2023-12-07T14:04:50;2.50;99.90
36752;DHT22;22718;49.494;7.036;2023-12-07T14:07:20;2.40;99.90
36752;DHT22;22718;49.494;7.036;2023-12-07T14:09:47;2.40;99.90
36752;DHT22;22718;49.494;7.036;2023-12-07T14:12:16;2.30;99.90
36752;DHT22;22718;49.494;7.036;2023-12-07T14:14:47;2.30;99.90
36752;DHT22;22718;49.494;7.036;2023-12-07T14:17:17;2.20;99.90
36752;DHT22;22718;49.494;7.036;2023-12-07T14:19:51;2.10;99.90
36752;DHT22;22718;49.494;7.036;2023-12-07T14:22:26;1.90;99.90
36752;DHT22;22718;49.494;7.036;2023-12-07T14:24:52;1.90;99.90
36752;DHT22;22718;49.494;7.036;2023-12-07T14:27:24;1.80;99.90
36752;DHT22;22718;49.494;7.036;2023-12-07T14:29:54;1.70;99.90
36752;DHT22;22718;49.494;7.036;2023-12-07T14:32:22;1.70;99.90
36752;DHT22;22718;49.494;7.036;2023-12-07T14:34:48;1.60;99.90
36752;DHT22;22718;49.494;7.036;2023-12-07T14:37:36;1.60;99.90
36752;DHT22;22718;49.494;7.036;2023-12-07T14:40:07;1.60;99.90
36752;DHT22;22718;49.494;7.036;2023-12-07T14:42:45;1.50;99.90
36752;DHT22;22718;49.494;7.036;2023-12-07T14:45:11;1.50;99.90
36752;DHT22;22718;49.494;7.036;2023-12-07T14:47:41;1.40;99.90
36752;DHT22;22718;49.494;7.036;2023-12-07T14:50:11;1.30;99.90
36752;DHT22;22718;49.494;7.036;2023-12-07T14:52:39;1.30;99.90
36752;DHT22;22718;49.494;7.036;2023-12-07T14:55:05;1.20;99.90
36752;DHT22;22718;49.494;7.036;2023-12-07T14:57:31;1.10;99.90
36752;DHT22;22718;49.494;7.036;2023-12-07T15:03:58;1.00;99.90
36752;DHT22;22718;49.494;7.036;2023-12-07T15:06:26;1.10;99.90
36752;DHT22;22718;49.494;7.036;2023-12-07T15:09:03;1.20;99.90
36752;DHT22;22718;49.494;7.036;2023-12-07T15:11:33;1.10;99.90
36752;DHT22;22718;49.494;7.036;2023-12-07T15:14:02;1.00;99.90
36752;DHT22;22718;49.494;7.036;2023-12-07T15:16:29;0.90;99.90
36752;DHT22;22718;49.494;7.036;2023-12-07T15:18:58;0.90;99.90
36752;DHT22;22718;49.494;7.036;2023-12-07T15:21:23;1.00;99.90
36752;DHT22;22718;49.494;7.036;2023-12-07T15:23:50;1.00;99.90
36752;DHT22;22718;49.494;7.036;2023-12-07T15:26:16;1.10;99.90
36752;DHT22;22718;49.494;7.036;2023-12-07T15:28:42;1.00;99.90
36752;DHT22;22718;49.494;7.036;2023-12-07T15:31:11;1.10;99.90
36752;DHT22;22718;49.494;7.036;2023-12-07T15:33:37;1.00;99.90
36752;DHT22;22718;49.494;7.036;2023-12-07T15:36:05;0.90;99.90
36752;DHT22;22718;49.494;7.036;2023-12-07T15:38:32;0.90;99.90
36752;DHT22;22718;49.494;7.036;2023-12-07T15:41:02;0.80;99.90
36752;DHT22;22718;49.494;7.036;2023-12-07T15:43:30;0.80;99.90
36752;DHT22;22718;49.494;7.036;2023-12-07T15:45:57;0.90;99.90
36752;DHT22;22718;49.494;7.036;2023-12-07T15:48:25;0.80;99.90
36752;DHT22;22718;49.494;7.036;2023-12-07T15:51:06;0.80;99.90
36752;DHT22;22718;49.494;7.036;2023-12-07T15:53:42;0.80;99.90
36752;DHT22;22718;49.494;7.036;2023-12-07T15:56:13;0.80;99.90
36752;DHT22;22718;49.494;7.036;2023-12-07T15:58:57;0.80;99.90
36752;DHT22;22718;49.494;7.036;2023-12-07T16:01:24;0.90;99.90
36752;DHT22;22718;49.494;7.036;2023-12-07T16:03:56;0.80;99.90
36752;DHT22;22718;49.494;7.036;2023-12-07T16:06:21;0.80;99.90
36752;DHT22;22718;49.494;7.036;2023-12-07T16:08:47;0.80;99.90
36752;DHT22;22718;49.494;7.036;2023-12-07T16:11:13;0.80;99.90
36752;DHT22;22718;49.494;7.036;2023-12-07T16:13:39;0.70;99.90
36752;DHT22;22718;49.494;7.036;2023-12-07T16:16:06;0.70;99.90
36752;DHT22;22718;49.494;7.036;2023-12-07T16:18:33;0.70;99.90
36752;DHT22;22718;49.494;7.036;2023-12-07T16:20:59;0.80;99.90